sensor_id;sensor_type;location;lat;lon;timestamp;temperature;humidity
38090;DHT22;23904;52.322;10.232;2024-03-17T00:02:08;5.80;99.90
38090;DHT22;23904;52.322;10.232;2024-03-17T00:04:34;5.80;99.90
38090;DHT22;23904;52.322;10.232;2024-03-17T00:07:00;5.80;99.90
38090;DHT22;23904;52.322;10.232;2024-03-17T00:09:25;5.80;99.90
38090;DHT22;23904;52.322;10.232;2024-03-17T00:11:51;5.80;99.90
38090;DHT22;23904;52.322;10.232;2024-03-17T00:14:16;5.80;99.90
38090;DHT22;23904;52.322;10.232;2024-03-17T00:16:43;5.70;99.90
38090;DHT22;23904;52.322;10.232;2024-03-17T00:19:09;5.70;99.90
38090;DHT22;23904;52.322;10.232;2024-03-17T00:21:35;5.70;99.90
38090;DHT22;23904;52.322;10.232;2024-03-17T00:24:01;5.60;99.90
38090;DHT22;23904;52.322;10.232;2024-03-17T00:26:28;5.50;99.90
38090;DHT22;23904;52.322;10.232;2024-03-17T00:28:54;5.50;99.90
38090;DHT22;23904;52.322;10.232;2024-03-17T00:31:20;5.50;99.90
38090;DHT22;23904;52.322;10.232;2024-03-17T00:33:46;5.50;99.90
38090;DHT22;23904;52.322;10.232;2024-03-17T00:36:12;5.50;99.90
38090;DHT22;23904;52.322;10.232;2024-03-17T00:38:37;5.40;99.90
38090;DHT22;23904;52.322;10.232;2024-03-17T00:41:04;5.40;99.90
38090;DHT22;23904;52.322;10.232;2024-03-17T00:43:29;5.30;99.90
38090;DHT22;23904;52.322;10.232;2024-03-17T00:45:55;5.30;99.90
38090;DHT22;23904;52.322;10.232;2024-03-17T00:48:21;5.30;99.90
38090;DHT22;23904;52.322;10.232;2024-03-17T00:50:55;5.30;99.90
38090;DHT22;23904;52.322;10.232;2024-03-17T00:53:21;5.30;99.90
38090;DHT22;23904;52.322;10.232;2024-03-17T00:55:54;5.30;99.90
38090;DHT22;23904;52.322;10.232;2024-03-17T00:58:23;5.30;99.90
38090;DHT22;23904;52.322;10.232;2024-03-17T01:00:49;5.30;99.90
38090;DHT22;23904;52.322;10.232;2024-03-17T01:03:15;5.30;99.90
38090;DHT22;23904;52.322;10.232;2024-03-17T01:05:41;5.30;99.90
38090;DHT22;23904;52.322;10.232;2024-03-17T01:08:12;5.40;99.90
38090;DHT22;23904;52.322;10.232;2024-03-17T01:10:39;5.30;99.90
38090;DHT22;23904;52.322;10.232;2024-03-17T01:13:09;5.30;99.90
38090;DHT22;23904;52.322;10.232;2024-03-17T01:15:38;5.30;99.90
38090;DHT22;23904;52.322;10.232;2024-03-17T01:18:05;5.30;99.90
38090;DHT22;23904;52.322;10.232;2024-03-17T01:20:35;5.30;99.90
38090;DHT22;23904;52.322;10.232;2024-03-17T01:23:01;5.30;99.90
38090;DHT22;23904;52.322;10.232;2024-03-17T01:25:27;5.30;99.90
38090;DHT22;23904;52.322;10.232;2024-03-17T01:27:55;5.30;99.90
38090;DHT22;23904;52.322;10.232;2024-03-17T01:30:21;5.20;99.90
38090;DHT22;23904;52.322;10.232;2024-03-17T01:32:48;5.20;99.90
38090;DHT22;23904;52.322;10.232;2024-03-17T01:35:14;5.20;99.90
38090;DHT22;23904;52.322;10.232;2024-03-17T01:37:40;5.20;99.90
38090;DHT22;23904;52.322;10.232;2024-03-17T01:40:06;5.20;99.90
38090;DHT22;23904;52.322;10.232;2024-03-17T01:42:40;5.10;99.90
38090;DHT22;23904;52.322;10.232;2024-03-17T01:45:29;5.10;99.90
38090;DHT22;23904;52.322;10.232;2024-03-17T01:47:57;5.20;99.90
38090;DHT22;23904;52.322;10.232;2024-03-17T01:50:36;5.10;99.90
38090;DHT22;23904;52.322;10.232;2024-03-17T01:53:03;5.20;99.90
38090;DHT22;23904;52.322;10.232;2024-03-17T01:55:32;5.20;99.90
38090;DHT22;23904;52.322;10.232;2024-03-17T01:57:59;5.20;99.90
38090;DHT22;23904;52.322;10.232;2024-03-17T02:00:24;5.20;99.90
38090;DHT22;23904;52.322;10.232;2024-03-17T02:02:52;5.10;99.90
38090;DHT22;23904;52.322;10.232;2024-03-17T02:05:17;5.10;99.90
38090;DHT22;23904;52.322;10.232;2024-03-17T02:07:43;5.10;99.90
38090;DHT22;23904;52.322;10.232;2024-03-17T02:10:08;5.10;99.90
38090;DHT22;23904;52.322;10.232;2024-03-17T02:12:35;5.10;99.90
38090;DHT22;23904;52.322;10.232;2024-03-17T02:15:01;5.10;99.90
38090;DHT22;23904;52.322;10.232;2024-03-17T02:17:31;5.10;99.90
38090;DHT22;23904;52.322;10.232;2024-03-17T02:19:57;5.20;99.90
38090;DHT22;23904;52.322;10.232;2024-03-17T02:22:22;5.20;99.90
38090;DHT22;23904;52.322;10.232;2024-03-17T02:24:48;5.10;99.90
38090;DHT22;23904;52.322;10.232;2024-03-17T02:27:13;5.10;99.90
38090;DHT22;23904;52.322;10.232;2024-03-17T02:29:39;5.10;99.90
38090;DHT22;23904;52.322;10.232;2024-03-17T02:32:08;5.10;99.90
38090;DHT22;23904;52.322;10.232;2024-03-17T02:34:34;5.10;99.90
38090;DHT22;23904;52.322;10.232;2024-03-17T02:37:01;5.10;99.90
38090;DHT22;23904;52.322;10.232;2024-03-17T02:39:28;5.10;99.90
38090;DHT22;23904;52.322;10.232;2024-03-17T02:42:10;5.10;99.90
38090;DHT22;23904;52.322;10.232;2024-03-17T02:44:37;5.10;99.90
38090;DHT22;23904;52.322;10.232;2024-03-17T02:47:05;5.10;99.90
38090;DHT22;23904;52.322;10.232;2024-03-17T02:49:31;5.00;99.90
38090;DHT22;23904;52.322;10.232;2024-03-17T02:52:03;5.00;99.90
38090;DHT22;23904;52.322;10.232;2024-03-17T02:54:30;5.00;99.90
38090;DHT22;23904;52.322;10.232;2024-03-17T02:56:55;4.90;99.90
38090;DHT22;23904;52.322;10.232;2024-03-17T02:59:21;4.90;99.90
38090;DHT22;23904;52.322;10.232;2024-03-17T03:01:46;4.80;99.90
38090;DHT22;23904;52.322;10.232;2024-03-17T03:04:12;4.80;99.90
38090;DHT22;23904;52.322;10.232;2024-03-17T03:06:38;4.80;99.90
38090;DHT22;23904;52.322;10.232;2024-03-17T03:09:04;4.80;99.90
38090;DHT22;23904;52.322;10.232;2024-03-17T03:11:38;4.70;99.90
38090;DHT22;23904;52.322;10.232;2024-03-17T03:14:04;4.70;99.90
38090;DHT22;23904;52.322;10.232;2024-03-17T03:16:30;4.70;99.90
38090;DHT22;23904;52.322;10.232;2024-03-17T03:18:56;4.70;99.90
38090;DHT22;23904;52.322;10.232;2024-03-17T03:21:21;4.70;99.90
38090;DHT22;23904;52.322;10.232;2024-03-17T03:23:47;4.70;99.90
38090;DHT22;23904;52.322;10.232;2024-03-17T03:26:12;4.60;99.90
38090;DHT22;23904;52.322;10.232;2024-03-17T03:28:38;4.60;99.90
38090;DHT22;23904;52.322;10.232;2024-03-17T03:31:04;4.60;99.90
38090;DHT22;23904;52.322;10.232;2024-03-17T03:33:30;4.60;99.90
38090;DHT22;23904;52.322;10.232;2024-03-17T03:35:56;4.60;99.90
38090;DHT22;23904;52.322;10.232;2024-03-17T03:38:22;4.60;99.90
38090;DHT22;23904;52.322;10.232;2024-03-17T03:40:48;4.60;99.90
38090;DHT22;23904;52.322;10.232;2024-03-17T03:43:14;4.60;99.90
38090;DHT22;23904;52.322;10.232;2024-03-17T03:45:40;4.60;99.90
38090;DHT22;23904;52.322;10.232;2024-03-17T03:48:07;4.60;99.90
38090;DHT22;23904;52.322;10.232;2024-03-17T03:50:37;4.60;99.90
38090;DHT22;23904;52.322;10.232;2024-03-17T03:53:04;4.60;99.90
38090;DHT22;23904;52.322;10.232;2024-03-17T03:55:30;4.60;99.90
38090;DHT22;23904;52.322;10.232;2024-03-17T03:57:56;4.50;99.90
38090;DHT22;23904;52.322;10.232;2024-03-17T04:00:22;4.50;99.90
38090;DHT22;23904;52.322;10.232;2024-03-17T04:02:51;4.50;99.90
38090;DHT22;23904;52.322;10.232;2024-03-17T04:05:18;4.40;99.90
38090;DHT22;23904;52.322;10.232;2024-03-17T04:07:45;4.40;99.90
38090;DHT22;23904;52.322;10.232;2024-03-17T04:10:12;4.40;99.90
38090;DHT22;23904;52.322;10.232;2024-03-17T04:12:38;4.40;99.90
38090;DHT22;23904;52.322;10.232;2024-03-17T04:15:04;4.40;99.90
38090;DHT22;23904;52.322;10.232;2024-03-17T04:17:32;4.40;99.90
38090;DHT22;23904;52.322;10.232;2024-03-17T04:19:58;4.40;99.90
38090;DHT22;23904;52.322;10.232;2024-03-17T04:22:24;4.50;99.90
38090;DHT22;23904;52.322;10.232;2024-03-17T04:24:51;4.50;99.90
38090;DHT22;23904;52.322;10.232;2024-03-17T04:27:24;4.50;99.90
38090;DHT22;23904;52.322;10.232;2024-03-17T04:29:51;4.60;99.90
38090;DHT22;23904;52.322;10.232;2024-03-17T04:32:17;4.50;99.90
38090;DHT22;23904;52.322;10.232;2024-03-17T04:34:43;4.60;99.90
38090;DHT22;23904;52.322;10.232;2024-03-17T04:37:09;4.50;99.90
38090;DHT22;23904;52.322;10.232;2024-03-17T04:39:39;4.50;99.90
38090;DHT22;23904;52.322;10.232;2024-03-17T04:42:06;4.50;99.90
38090;DHT22;23904;52.322;10.232;2024-03-17T04:44:32;4.50;99.90
38090;DHT22;23904;52.322;10.232;2024-03-17T04:46:57;4.50;99.90
38090;DHT22;23904;52.322;10.232;2024-03-17T04:49:23;4.60;99.90
38090;DHT22;23904;52.322;10.232;2024-03-17T04:51:48;4.60;99.90
38090;DHT22;23904;52.322;10.232;2024-03-17T04:54:15;4.60;99.90
38090;DHT22;23904;52.322;10.232;2024-03-17T04:56:40;4.60;99.90
38090;DHT22;23904;52.322;10.232;2024-03-17T04:59:06;4.60;99.90
38090;DHT22;23904;52.322;10.232;2024-03-17T05:01:31;4.70;99.90
38090;DHT22;23904;52.322;10.232;2024-03-17T05:04:04;4.70;99.90
38090;DHT22;23904;52.322;10.232;2024-03-17T05:06:29;4.70;99.90
38090;DHT22;23904;52.322;10.232;2024-03-17T05:08:55;4.70;99.90
38090;DHT22;23904;52.322;10.232;2024-03-17T05:11:20;4.70;99.90
38090;DHT22;23904;52.322;10.232;2024-03-17T05:13:46;4.70;99.90
38090;DHT22;23904;52.322;10.232;2024-03-17T05:16:11;4.80;99.90
38090;DHT22;23904;52.322;10.232;2024-03-17T05:18:37;4.80;99.90
38090;DHT22;23904;52.322;10.232;2024-03-17T05:21:07;4.80;99.90
38090;DHT22;23904;52.322;10.232;2024-03-17T05:23:35;4.90;99.90
38090;DHT22;23904;52.322;10.232;2024-03-17T05:26:02;4.90;99.90
38090;DHT22;23904;52.322;10.232;2024-03-17T05:28:30;5.00;99.90
38090;DHT22;23904;52.322;10.232;2024-03-17T05:30:56;4.90;99.90
38090;DHT22;23904;52.322;10.232;2024-03-17T05:33:23;4.90;99.90
38090;DHT22;23904;52.322;10.232;2024-03-17T05:35:56;4.90;99.90
38090;DHT22;23904;52.322;10.232;2024-03-17T05:38:23;5.00;99.90
38090;DHT22;23904;52.322;10.232;2024-03-17T05:41:03;5.00;99.90
38090;DHT22;23904;52.322;10.232;2024-03-17T05:43:31;5.10;99.90
38090;DHT22;23904;52.322;10.232;2024-03-17T05:46:07;5.10;99.90
38090;DHT22;23904;52.322;10.232;2024-03-17T05:48:34;5.10;99.90
38090;DHT22;23904;52.322;10.232;2024-03-17T05:51:04;5.10;99.90
38090;DHT22;23904;52.322;10.232;2024-03-17T05:53:30;5.10;99.90
38090;DHT22;23904;52.322;10.232;2024-03-17T05:56:03;5.00;99.90
38090;DHT22;23904;52.322;10.232;2024-03-17T05:58:29;5.00;99.90
38090;DHT22;23904;52.322;10.232;2024-03-17T06:00:55;5.00;99.90
38090;DHT22;23904;52.322;10.232;2024-03-17T06:03:21;5.00;99.90
38090;DHT22;23904;52.322;10.232;2024-03-17T06:05:47;5.00;99.90
38090;DHT22;23904;52.322;10.232;2024-03-17T06:08:14;5.00;99.90
38090;DHT22;23904;52.322;10.232;2024-03-17T06:10:47;5.00;99.90
38090;DHT22;23904;52.322;10.232;2024-03-17T06:13:14;5.00;99.90
38090;DHT22;23904;52.322;10.232;2024-03-17T06:15:43;5.10;99.90
38090;DHT22;23904;52.322;10.232;2024-03-17T06:18:11;5.10;99.90
38090;DHT22;23904;52.322;10.232;2024-03-17T06:20:47;5.10;99.90
38090;DHT22;23904;52.322;10.232;2024-03-17T06:23:15;5.10;99.90
38090;DHT22;23904;52.322;10.232;2024-03-17T06:25:48;5.10;99.90
38090;DHT22;23904;52.322;10.232;2024-03-17T06:28:15;5.10;99.90
38090;DHT22;23904;52.322;10.232;2024-03-17T06:30:43;5.00;99.90
38090;DHT22;23904;52.322;10.232;2024-03-17T06:33:12;5.10;99.90
38090;DHT22;23904;52.322;10.232;2024-03-17T06:35:39;5.10;99.90
38090;DHT22;23904;52.322;10.232;2024-03-17T06:38:05;5.20;99.90
38090;DHT22;23904;52.322;10.232;2024-03-17T06:40:35;5.20;99.90
38090;DHT22;23904;52.322;10.232;2024-03-17T06:43:01;5.30;99.90
38090;DHT22;23904;52.322;10.232;2024-03-17T06:45:27;5.30;99.90
38090;DHT22;23904;52.322;10.232;2024-03-17T06:47:53;5.40;99.90
38090;DHT22;23904;52.322;10.232;2024-03-17T06:50:18;5.40;99.90
38090;DHT22;23904;52.322;10.232;2024-03-17T06:52:44;5.40;99.90
38090;DHT22;23904;52.322;10.232;2024-03-17T06:55:09;5.40;99.90
38090;DHT22;23904;52.322;10.232;2024-03-17T06:57:35;5.40;99.90
38090;DHT22;23904;52.322;10.232;2024-03-17T07:00:01;5.40;99.90
38090;DHT22;23904;52.322;10.232;2024-03-17T07:02:31;5.50;99.90
38090;DHT22;23904;52.322;10.232;2024-03-17T07:04:59;5.60;99.90
38090;DHT22;23904;52.322;10.232;2024-03-17T07:07:27;5.60;99.90
38090;DHT22;23904;52.322;10.232;2024-03-17T07:09:53;5.70;99.90
38090;DHT22;23904;52.322;10.232;2024-03-17T07:12:19;5.80;99.90
38090;DHT22;23904;52.322;10.232;2024-03-17T07:14:45;5.80;99.90
38090;DHT22;23904;52.322;10.232;2024-03-17T07:17:10;6.00;99.90
38090;DHT22;23904;52.322;10.232;2024-03-17T07:19:36;6.10;99.90
38090;DHT22;23904;52.322;10.232;2024-03-17T07:22:02;6.20;99.90
38090;DHT22;23904;52.322;10.232;2024-03-17T07:24:29;6.20;99.90
38090;DHT22;23904;52.322;10.232;2024-03-17T07:26:55;6.30;99.90
38090;DHT22;23904;52.322;10.232;2024-03-17T07:29:20;6.20;99.90
38090;DHT22;23904;52.322;10.232;2024-03-17T07:31:46;6.20;99.90
38090;DHT22;23904;52.322;10.232;2024-03-17T07:34:12;6.30;99.90
38090;DHT22;23904;52.322;10.232;2024-03-17T07:36:37;6.30;99.90
38090;DHT22;23904;52.322;10.232;2024-03-17T07:39:04;6.30;99.90
38090;DHT22;23904;52.322;10.232;2024-03-17T07:41:31;6.30;99.90
38090;DHT22;23904;52.322;10.232;2024-03-17T07:43:57;6.40;99.90
38090;DHT22;23904;52.322;10.232;2024-03-17T07:46:22;6.50;99.90
38090;DHT22;23904;52.322;10.232;2024-03-17T07:48:48;6.70;99.90
38090;DHT22;23904;52.322;10.232;2024-03-17T07:51:15;6.90;99.90
38090;DHT22;23904;52.322;10.232;2024-03-17T07:53:45;7.20;99.90
38090;DHT22;23904;52.322;10.232;2024-03-17T07:56:13;7.70;99.90
38090;DHT22;23904;52.322;10.232;2024-03-17T07:58:41;8.30;99.90
38090;DHT22;23904;52.322;10.232;2024-03-17T08:01:11;8.90;99.90
38090;DHT22;23904;52.322;10.232;2024-03-17T08:03:39;9.50;99.90
38090;DHT22;23904;52.322;10.232;2024-03-17T08:06:06;9.80;99.90
38090;DHT22;23904;52.322;10.232;2024-03-17T08:08:33;10.60;99.90
38090;DHT22;23904;52.322;10.232;2024-03-17T08:10:59;10.60;99.90
38090;DHT22;23904;52.322;10.232;2024-03-17T08:13:28;10.60;99.90
38090;DHT22;23904;52.322;10.232;2024-03-17T08:16:02;10.20;99.90
38090;DHT22;23904;52.322;10.232;2024-03-17T08:18:31;9.70;99.90
38090;DHT22;23904;52.322;10.232;2024-03-17T08:21:00;9.30;99.90
38090;DHT22;23904;52.322;10.232;2024-03-17T08:23:31;9.20;99.90
38090;DHT22;23904;52.322;10.232;2024-03-17T08:25:59;9.20;99.90
38090;DHT22;23904;52.322;10.232;2024-03-17T08:28:26;9.30;99.90
38090;DHT22;23904;52.322;10.232;2024-03-17T08:31:00;9.30;99.90
38090;DHT22;23904;52.322;10.232;2024-03-17T08:33:26;9.20;99.90
38090;DHT22;23904;52.322;10.232;2024-03-17T08:36:00;9.10;99.90
38090;DHT22;23904;52.322;10.232;2024-03-17T08:38:33;9.00;99.90
38090;DHT22;23904;52.322;10.232;2024-03-17T08:41:03;9.30;99.90
38090;DHT22;23904;52.322;10.232;2024-03-17T08:43:30;9.70;99.90
38090;DHT22;23904;52.322;10.232;2024-03-17T08:46:00;10.30;99.90
38090;DHT22;23904;52.322;10.232;2024-03-17T08:48:29;10.90;99.90
38090;DHT22;23904;52.322;10.232;2024-03-17T08:50:59;11.20;99.90
38090;DHT22;23904;52.322;10.232;2024-03-17T08:53:26;11.40;99.90
38090;DHT22;23904;52.322;10.232;2024-03-17T08:55:52;12.00;99.90
38090;DHT22;23904;52.322;10.232;2024-03-17T08:58:19;13.00;99.90
38090;DHT22;23904;52.322;10.232;2024-03-17T09:00:44;13.50;99.90
38090;DHT22;23904;52.322;10.232;2024-03-17T09:03:11;14.10;99.90
38090;DHT22;23904;52.322;10.232;2024-03-17T09:05:39;13.90;99.90
38090;DHT22;23904;52.322;10.232;2024-03-17T09:08:09;14.10;99.90
38090;DHT22;23904;52.322;10.232;2024-03-17T09:10:41;14.10;99.90
38090;DHT22;23904;52.322;10.232;2024-03-17T09:13:12;14.20;99.90
38090;DHT22;23904;52.322;10.232;2024-03-17T09:15:39;14.80;99.60
38090;DHT22;23904;52.322;10.232;2024-03-17T09:18:04;15.90;98.90
38090;DHT22;23904;52.322;10.232;2024-03-17T09:20:30;16.40;97.40
38090;DHT22;23904;52.322;10.232;2024-03-17T09:22:56;16.30;97.40
38090;DHT22;23904;52.322;10.232;2024-03-17T09:25:22;17.40;95.30
38090;DHT22;23904;52.322;10.232;2024-03-17T09:27:48;17.20;96.80
38090;DHT22;23904;52.322;10.232;2024-03-17T09:30:14;18.30;92.90
38090;DHT22;23904;52.322;10.232;2024-03-17T09:32:40;19.00;91.20
38090;DHT22;23904;52.322;10.232;2024-03-17T09:35:06;17.50;91.80
38090;DHT22;23904;52.322;10.232;2024-03-17T09:37:32;16.30;93.80
38090;DHT22;23904;52.322;10.232;2024-03-17T09:39:58;14.70;96.30
38090;DHT22;23904;52.322;10.232;2024-03-17T09:42:25;14.00;97.10
38090;DHT22;23904;52.322;10.232;2024-03-17T09:44:53;13.60;98.60
38090;DHT22;23904;52.322;10.232;2024-03-17T09:47:24;13.40;98.40
38090;DHT22;23904;52.322;10.232;2024-03-17T09:49:51;13.00;98.60
38090;DHT22;23904;52.322;10.232;2024-03-17T09:52:23;12.30;99.90
38090;DHT22;23904;52.322;10.232;2024-03-17T09:55:08;11.90;99.90
38090;DHT22;23904;52.322;10.232;2024-03-17T09:57:40;11.90;99.90
38090;DHT22;23904;52.322;10.232;2024-03-17T10:00:13;11.90;99.90
38090;DHT22;23904;52.322;10.232;2024-03-17T10:02:46;11.80;99.90
38090;DHT22;23904;52.322;10.232;2024-03-17T10:05:19;11.90;99.90
38090;DHT22;23904;52.322;10.232;2024-03-17T10:07:46;12.20;99.90
38090;DHT22;23904;52.322;10.232;2024-03-17T10:10:13;12.30;99.90
38090;DHT22;23904;52.322;10.232;2024-03-17T10:12:39;12.10;99.90
38090;DHT22;23904;52.322;10.232;2024-03-17T10:15:05;11.60;99.90
38090;DHT22;23904;52.322;10.232;2024-03-17T10:17:32;11.60;99.90
38090;DHT22;23904;52.322;10.232;2024-03-17T10:20:18;11.50;99.90
38090;DHT22;23904;52.322;10.232;2024-03-17T10:23:05;12.10;99.90
38090;DHT22;23904;52.322;10.232;2024-03-17T10:25:34;13.30;99.90
38090;DHT22;23904;52.322;10.232;2024-03-17T10:28:01;13.90;98.50
38090;DHT22;23904;52.322;10.232;2024-03-17T10:30:27;15.00;96.60
38090;DHT22;23904;52.322;10.232;2024-03-17T10:33:01;15.00;96.10
38090;DHT22;23904;52.322;10.232;2024-03-17T10:35:32;14.50;96.00
38090;DHT22;23904;52.322;10.232;2024-03-17T10:38:05;13.70;97.60
38090;DHT22;23904;52.322;10.232;2024-03-17T10:40:32;13.60;98.80
38090;DHT22;23904;52.322;10.232;2024-03-17T10:43:00;14.30;97.90
38090;DHT22;23904;52.322;10.232;2024-03-17T10:45:26;14.70;96.50
38090;DHT22;23904;52.322;10.232;2024-03-17T10:47:56;15.00;96.20
38090;DHT22;23904;52.322;10.232;2024-03-17T10:50:28;15.50;95.50
38090;DHT22;23904;52.322;10.232;2024-03-17T10:53:01;16.10;93.90
38090;DHT22;23904;52.322;10.232;2024-03-17T10:55:41;16.30;92.90
38090;DHT22;23904;52.322;10.232;2024-03-17T10:58:58;17.40;91.00
38090;DHT22;23904;52.322;10.232;2024-03-17T11:01:13;19.00;87.70
38090;DHT22;23904;52.322;10.232;2024-03-17T11:03:39;18.70;84.70
38090;DHT22;23904;52.322;10.232;2024-03-17T11:06:06;19.50;84.00
38090;DHT22;23904;52.322;10.232;2024-03-17T11:08:34;20.00;82.40
38090;DHT22;23904;52.322;10.232;2024-03-17T11:11:00;20.00;78.80
38090;DHT22;23904;52.322;10.232;2024-03-17T11:13:28;20.20;76.90
38090;DHT22;23904;52.322;10.232;2024-03-17T11:15:55;22.00;72.40
38090;DHT22;23904;52.322;10.232;2024-03-17T11:21:21;22.60;67.70
38090;DHT22;23904;52.322;10.232;2024-03-17T11:24:01;22.70;67.00
38090;DHT22;23904;52.322;10.232;2024-03-17T11:26:33;21.60;71.00
38090;DHT22;23904;52.322;10.232;2024-03-17T11:29:00;20.30;72.90
38090;DHT22;23904;52.322;10.232;2024-03-17T11:31:44;18.60;76.80
38090;DHT22;23904;52.322;10.232;2024-03-17T11:34:31;17.40;79.50
38090;DHT22;23904;52.322;10.232;2024-03-17T11:37:00;17.70;79.90
38090;DHT22;23904;52.322;10.232;2024-03-17T11:39:46;18.10;78.10
38090;DHT22;23904;52.322;10.232;2024-03-17T11:42:14;18.90;76.80
38090;DHT22;23904;52.322;10.232;2024-03-17T11:45:14;19.20;75.00
38090;DHT22;23904;52.322;10.232;2024-03-17T11:47:41;18.40;75.20
38090;DHT22;23904;52.322;10.232;2024-03-17T11:50:10;17.90;77.30
38090;DHT22;23904;52.322;10.232;2024-03-17T11:52:37;17.50;78.70
38090;DHT22;23904;52.322;10.232;2024-03-17T11:55:03;18.20;79.00
38090;DHT22;23904;52.322;10.232;2024-03-17T11:57:29;18.40;78.30
38090;DHT22;23904;52.322;10.232;2024-03-17T11:59:56;20.00;71.30
38090;DHT22;23904;52.322;10.232;2024-03-17T12:02:24;20.00;71.30
38090;DHT22;23904;52.322;10.232;2024-03-17T12:04:52;19.20;71.30
38090;DHT22;23904;52.322;10.232;2024-03-17T12:07:19;18.90;74.30
38090;DHT22;23904;52.322;10.232;2024-03-17T12:09:47;21.00;69.60
38090;DHT22;23904;52.322;10.232;2024-03-17T12:12:26;22.10;67.20
38090;DHT22;23904;52.322;10.232;2024-03-17T12:15:00;20.70;67.60
38090;DHT22;23904;52.322;10.232;2024-03-17T12:17:26;20.50;71.00
38090;DHT22;23904;52.322;10.232;2024-03-17T12:19:53;21.20;69.80
38090;DHT22;23904;52.322;10.232;2024-03-17T12:22:20;21.00;68.40
38090;DHT22;23904;52.322;10.232;2024-03-17T12:24:51;19.30;70.80
38090;DHT22;23904;52.322;10.232;2024-03-17T12:27:24;18.00;73.40
38090;DHT22;23904;52.322;10.232;2024-03-17T12:29:55;16.80;76.50
38090;DHT22;23904;52.322;10.232;2024-03-17T12:32:24;15.70;80.60
38090;DHT22;23904;52.322;10.232;2024-03-17T12:34:54;15.50;82.40
38090;DHT22;23904;52.322;10.232;2024-03-17T12:37:22;15.10;83.80
38090;DHT22;23904;52.322;10.232;2024-03-17T12:39:50;15.50;83.20
38090;DHT22;23904;52.322;10.232;2024-03-17T12:42:22;15.70;82.40
38090;DHT22;23904;52.322;10.232;2024-03-17T12:44:50;15.70;82.00
38090;DHT22;23904;52.322;10.232;2024-03-17T12:47:24;15.80;80.30
38090;DHT22;23904;52.322;10.232;2024-03-17T12:52:26;14.90;82.60
38090;DHT22;23904;52.322;10.232;2024-03-17T12:55:08;14.80;83.60
38090;DHT22;23904;52.322;10.232;2024-03-17T12:58:06;14.70;85.90
38090;DHT22;23904;52.322;10.232;2024-03-17T13:01:04;15.00;84.50
38090;DHT22;23904;52.322;10.232;2024-03-17T13:03:32;14.80;84.90
38090;DHT22;23904;52.322;10.232;2024-03-17T13:06:00;15.10;85.80
38090;DHT22;23904;52.322;10.232;2024-03-17T13:08:28;15.60;85.70
38090;DHT22;23904;52.322;10.232;2024-03-17T13:10:54;16.30;81.40
38090;DHT22;23904;52.322;10.232;2024-03-17T13:13:19;16.00;83.10
38090;DHT22;23904;52.322;10.232;2024-03-17T13:15:45;16.40;80.40
38090;DHT22;23904;52.322;10.232;2024-03-17T13:18:16;16.60;81.40
38090;DHT22;23904;52.322;10.232;2024-03-17T13:20:47;17.10;79.40
38090;DHT22;23904;52.322;10.232;2024-03-17T13:23:15;17.00;78.40
38090;DHT22;23904;52.322;10.232;2024-03-17T13:25:41;16.60;81.50
38090;DHT22;23904;52.322;10.232;2024-03-17T13:28:09;16.80;79.10
38090;DHT22;23904;52.322;10.232;2024-03-17T13:30:35;16.30;81.70
38090;DHT22;23904;52.322;10.232;2024-03-17T13:33:05;16.40;79.20
38090;DHT22;23904;52.322;10.232;2024-03-17T13:35:35;16.00;80.50
38090;DHT22;23904;52.322;10.232;2024-03-17T13:38:07;15.90;80.40
38090;DHT22;23904;52.322;10.232;2024-03-17T13:40:35;16.10;80.50
38090;DHT22;23904;52.322;10.232;2024-03-17T13:43:03;15.90;79.20
38090;DHT22;23904;52.322;10.232;2024-03-17T13:45:31;15.80;80.60
38090;DHT22;23904;52.322;10.232;2024-03-17T13:48:05;15.30;82.40
38090;DHT22;23904;52.322;10.232;2024-03-17T13:50:32;15.00;84.00
38090;DHT22;23904;52.322;10.232;2024-03-17T13:52:58;15.10;83.70
38090;DHT22;23904;52.322;10.232;2024-03-17T13:55:25;15.00;85.20
38090;DHT22;23904;52.322;10.232;2024-03-17T13:57:53;14.90;84.00
38090;DHT22;23904;52.322;10.232;2024-03-17T14:00:21;14.80;85.10
38090;DHT22;23904;52.322;10.232;2024-03-17T14:02:53;14.90;83.40
38090;DHT22;23904;52.322;10.232;2024-03-17T14:05:23;14.80;84.70
38090;DHT22;23904;52.322;10.232;2024-03-17T14:07:51;14.40;86.80
38090;DHT22;23904;52.322;10.232;2024-03-17T14:10:18;13.90;86.80
38090;DHT22;23904;52.322;10.232;2024-03-17T14:12:45;13.70;89.40
38090;DHT22;23904;52.322;10.232;2024-03-17T14:15:13;13.60;89.90
38090;DHT22;23904;52.322;10.232;2024-03-17T14:20:07;13.60;90.40
38090;DHT22;23904;52.322;10.232;2024-03-17T14:22:37;13.80;89.10
38090;DHT22;23904;52.322;10.232;2024-03-17T14:25:10;13.90;89.50
38090;DHT22;23904;52.322;10.232;2024-03-17T14:27:40;14.10;88.20
38090;DHT22;23904;52.322;10.232;2024-03-17T14:30:06;14.20;86.80
38090;DHT22;23904;52.322;10.232;2024-03-17T14:32:33;14.00;89.10
38090;DHT22;23904;52.322;10.232;2024-03-17T14:34:59;13.80;90.50
38090;DHT22;23904;52.322;10.232;2024-03-17T14:37:25;13.40;90.30
38090;DHT22;23904;52.322;10.232;2024-03-17T14:39:51;13.00;91.40
38090;DHT22;23904;52.322;10.232;2024-03-17T14:42:18;13.00;91.40
38090;DHT22;23904;52.322;10.232;2024-03-17T14:44:45;13.30;90.60
38090;DHT22;23904;52.322;10.232;2024-03-17T14:47:10;13.10;91.30
38090;DHT22;23904;52.322;10.232;2024-03-17T14:49:36;13.10;91.90
38090;DHT22;23904;52.322;10.232;2024-03-17T14:52:01;13.30;91.20
38090;DHT22;23904;52.322;10.232;2024-03-17T14:54:27;13.40;90.20
38090;DHT22;23904;52.322;10.232;2024-03-17T14:56:53;13.40;90.60
38090;DHT22;23904;52.322;10.232;2024-03-17T14:59:19;13.30;90.60
38090;DHT22;23904;52.322;10.232;2024-03-17T15:01:46;12.90;91.90
38090;DHT22;23904;52.322;10.232;2024-03-17T15:04:13;12.80;92.10
38090;DHT22;23904;52.322;10.232;2024-03-17T15:06:40;12.80;92.60
38090;DHT22;23904;52.322;10.232;2024-03-17T15:09:06;12.80;92.40
38090;DHT22;23904;52.322;10.232;2024-03-17T15:11:31;12.90;92.80
38090;DHT22;23904;52.322;10.232;2024-03-17T15:13:57;12.90;93.40
38090;DHT22;23904;52.322;10.232;2024-03-17T15:16:22;13.10;91.60
38090;DHT22;23904;52.322;10.232;2024-03-17T15:18:48;13.10;91.50
38090;DHT22;23904;52.322;10.232;2024-03-17T15:21:14;13.00;92.00
38090;DHT22;23904;52.322;10.232;2024-03-17T15:23:40;12.80;92.50
38090;DHT22;23904;52.322;10.232;2024-03-17T15:26:06;12.70;93.00
38090;DHT22;23904;52.322;10.232;2024-03-17T15:28:36;12.70;92.00
38090;DHT22;23904;52.322;10.232;2024-03-17T15:31:08;12.80;92.30
38090;DHT22;23904;52.322;10.232;2024-03-17T15:33:35;12.70;93.30
38090;DHT22;23904;52.322;10.232;2024-03-17T15:36:06;12.80;92.30
38090;DHT22;23904;52.322;10.232;2024-03-17T15:38:34;12.80;92.10
38090;DHT22;23904;52.322;10.232;2024-03-17T15:41:04;12.80;92.60